Terminal Aerodrome Forecast
Issued by NWS Mt. Holly, NJ

Home | Current Version | Previous Version | Text Only | Print | Product List | Glossary On
Versions: 1 2 3 4 5 6 7 8 9 10 11 12 13 14 15 16 17 18 19 20 21 22 23 24 25 26 27 28 29 30 31 32 33 34 35 36 37 38 39 40 41 42 43 44 45 46 47 48 49 50
000
FTAK31 PANC 101449 AAA
TAFABE
TAF AMD
PABE 101449Z 1015/1112 35008KT P6SM -SHRA BKN040
     FM101600 30005KT 6SM -RA BKN025
      TEMPO 1016/1018 SCT025 OVC040
     FM102100 02012KT P6SM -SHRA BKN035=

USA.gov is the U.S. government's official web portal to all federal, state and local government web resources and services.